| time (UTC) | temp F | wind direction | speed knots | gust knots | rain 1hr in | rain 24hr in | rain mn in | humidity % | barometer mb |
| 20260906154556 | 85 | 109 | 4.3 | 7.0 | 0.00 | 0.00 | 0.00 | 76 | 1012.5 |
| 20260906153037 | 84 | 101 | 4.3 | 7.8 | 0.00 | 0.00 | 0.00 | 76 | 1012.6 |
| 20260906151514 | 84 | 141 | 4.3 | 9.6 | 0.00 | 0.00 | 0.00 | 77 | 1012.5 |
| 20260906150056 | 83 | 86 | 4.3 | 7.0 | 0.00 | 0.00 | 0.00 | 78 | 1012.5 |
| 20260906144540 | 82 | 96 | 5.2 | 7.8 | 0.00 | 0.00 | 0.00 | 78 | 1012.3 |
| 20260906143017 | 82 | 108 | 2.6 | 7.0 | 0.00 | 0.00 | 0.00 | 79 | 1012.1 |
| 20260906141605 | 82 | 119 | 4.3 | 7.0 | 0.00 | 0.00 | 0.00 | 79 | 1012.1 |
| 20260906140046 | 82 | 134 | 1.7 | 5.2 | 0.00 | 0.00 | 0.00 | 80 | 1012.0 |
| 20260906134526 | 81 | 105 | 0.9 | 5.2 | 0.00 | 0.00 | 0.00 | 82 | 1012.1 |
| 20260906133006 | 80 | 97 | 4.3 | 7.8 | 0.00 | 0.00 | 0.00 | 82 | 1011.9 |
| 20260906131556 | 79 | 79 | 4.3 | 8.7 | 0.00 | 0.00 | 0.00 | 84 | 1011.8 |
| 20260906130041 | 78 | 106 | 3.5 | 7.0 | 0.00 | 0.00 | 0.00 | 87 | 1011.7 |
| 20260906124516 | 78 | 58 | 2.6 | 7.8 | 0.00 | 0.00 | 0.00 | 89 | 1011.8 |
| 20260906123059 | 77 | 90 | 4.3 | 7.8 | 0.00 | 0.00 | 0.00 | 89 | 1011.7 |
| 20260906121543 | 77 | 109 | 3.5 | 7.0 | 0.00 | 0.00 | 0.00 | 90 | 1011.5 |
| 20260906120051 | 77 | 96 | 3.5 | 6.1 | 0.00 | 0.00 | 0.00 | 91 | 1011.5 |
| 20260906114535 | 76 | 124 | 2.6 | 5.2 | 0.00 | 0.00 | 0.00 | 91 | 1011.3 |
| 20260906113013 | 76 | 82 | 0.9 | 3.5 | 0.00 | 0.00 | 0.00 | 90 | 1011.2 |
| 20260906111558 | 76 | 66 | 0.0 | 2.6 | 0.00 | 0.00 | 0.00 | 90 | 1011.2 |
| 20260906110039 | 76 | 45 | 0.0 | 3.5 | 0.00 | 0.00 | 0.00 | 89 | 1011.1 |
| 20260906104521 | 76 | 42 | 0.0 | 1.7 | 0.00 | 0.00 | 0.00 | 88 | 1011.0 |
| 20260906103003 | 76 | 41 | 0.0 | 1.7 | 0.00 | 0.00 | 0.00 | 88 | 1010.9 |
| 20260906101556 | 77 | 39 | 0.0 | 3.5 | 0.00 | 0.00 | 0.00 | 87 | 1010.8 |
| 20260906100041 | 76 | 31 | 1.7 | 3.5 | 0.00 | 0.00 | 0.00 | 89 | 1010.8 |
| 20260906094533 | 73 | 352 | 0.9 | 1.7 | 0.00 | 0.00 | 0.00 | 91 | 1010.6 |
| 20260906093014 | 74 | 149 | 0.0 | 0.0 | 0.00 | 0.00 | 0.00 | 92 | 1010.3 |
| 20260906091559 | 74 | 255 | 0.0 | 1.7 | 0.00 | 0.00 | 0.00 | 93 | 1010.2 |
| 20260906090042 | 73 | 204 | 0.0 | 0.0 | 0.00 | 0.00 | 0.00 | 92 | 1010.1 |
| 20260906084529 | 74 | 204 | 0.0 | 0.0 | 0.00 | 0.00 | 0.00 | 91 | 1010.0 |
| 20260906083022 | 74 | 204 | 0.0 | 0.0 | 0.00 | 0.00 | 0.00 | 91 | 1010.1 |
| 20260906081504 | 74 | 204 | 0.0 | 0.0 | 0.00 | 0.00 | 0.00 | 90 | 1010.0 |
| 20260906080049 | 74 | 204 | 0.0 | 0.0 | 0.00 | 0.00 | 0.00 | 90 | 1009.9 |
| 20260906074537 | 75 | 204 | 0.0 | 0.0 | 0.00 | 0.00 | 0.00 | 88 | 1010.1 |
| 20260906073020 | 76 | 204 | 0.0 | 0.0 | 0.00 | 0.00 | 0.00 | 86 | 1010.1 |
| 20260906071506 | 77 | 204 | 0.0 | 0.0 | 0.00 | 0.00 | 0.00 | 84 | 1010.1 |
| 20260906070054 | 78 | 204 | 0.0 | 0.0 | 0.00 | 0.00 | 0.00 | 82 | 1010.1 |
| 20260906064542 | 79 | 124 | 0.0 | 0.0 | 0.00 | 0.00 | 0.00 | 80 | 1010.3 |
| 20260906063025 | 79 | 124 | 0.0 | 0.0 | 0.00 | 0.00 | 0.00 | 79 | 1010.3 |
| 20260906061510 | 80 | 145 | 0.0 | 0.9 | 0.00 | 0.00 | 0.00 | 78 | 1010.3 |
| 20260906060057 | 79 | 143 | 0.0 | 0.9 | 0.00 | 0.00 | 0.00 | 80 | 1010.3 |
| 20260906054546 | 78 | 177 | 0.0 | 2.6 | 0.00 | 0.00 | 0.00 | 84 | 1010.3 |
| 20260906053035 | 76 | 249 | 0.0 | 0.0 | 0.00 | 0.00 | 0.00 | 86 | 1010.3 |
| 20260906051515 | 77 | 249 | 0.0 | 0.0 | 0.00 | 0.00 | 0.00 | 85 | 1010.2 |
| 20260906050131 | 77 | 249 | 0.0 | 0.9 | 0.00 | 0.00 | 0.00 | 85 | 1010.3 |
| 20260906044553 | 77 | 281 | 0.0 | 0.0 | 0.00 | 0.00 | 0.00 | 85 | 1010.3 |
| 20260906043031 | 77 | 281 | 0.0 | 0.0 | 0.00 | 0.00 | 0.00 | 84 | 1010.3 |
| 20260906041516 | 78 | 281 | 0.0 | 0.0 | 0.00 | 0.00 | 0.00 | 81 | 1010.2 |
| 20260906040059 | 79 | 281 | 0.0 | 0.9 | 0.00 | 0.00 | 0.00 | 81 | 1010.2 |
| 20260906034542 | 80 | 55 | 0.0 | 0.0 | 0.00 | 0.00 | 0.00 | 78 | 1009.9 |
| 20260906033025 | 81 | 55 | 0.0 | 0.0 | 0.00 | 0.00 | 0.00 | 75 | 1009.9 |
| 20260906031602 | 82 | 54 | 0.0 | 0.0 | 0.00 | 0.00 | 0.00 | 72 | 1009.9 |
| 20260906030044 | 83 | 56 | 0.0 | 1.7 | 0.00 | 0.00 | 0.00 | 70 | 1009.7 |
| 20260906024524 | 84 | 98 | 0.0 | 0.9 | 0.00 | 0.00 | 0.00 | 68 | 1009.6 |
| 20260906023008 | 85 | 59 | 0.0 | 3.5 | 0.00 | 0.00 | 0.00 | 67 | 1009.3 |
| 20260906021608 | 86 | 117 | 1.7 | 4.3 | 0.00 | 0.00 | 0.00 | 64 | 1009.3 |
| 20260906020032 | 86 | 52 | 0.9 | 4.3 | 0.00 | 0.00 | 0.00 | 62 | 1008.9 |
| 20260906014512 | 86 | 44 | 1.7 | 4.3 | 0.00 | 0.00 | 0.00 | 61 | 1008.8 |
| 20260906013057 | 87 | 39 | 0.9 | 3.5 | 0.00 | 0.00 | 0.00 | 61 | 1008.6 |
| 20260906011539 | 87 | 56 | 1.7 | 5.2 | 0.00 | 0.00 | 0.00 | 61 | 1008.5 |
| 20260906010020 | 84 | 18 | 0.0 | 3.5 | 0.00 | 0.00 | 0.00 | 71 | 1008.4 |
| 20260906004503 | 85 | 44 | 0.0 | 0.0 | 0.00 | 0.00 | 0.00 | 68 | 1008.2 |
| 20260906003057 | 87 | 44 | 0.0 | 0.0 | 0.00 | 0.00 | 0.00 | 63 | 1008.2 |
| 20260906001527 | 90 | 44 | 0.0 | 0.0 | 0.00 | 0.00 | 0.00 | 59 | 1008.3 |
| 20260906000012 | 91 | 44 | 0.0 | 0.0 | 0.00 | 0.00 | 0.00 | 60 | 1008.4 |
| 20260905234613 | 92 | 44 | 0.0 | 0.9 | 0.00 | 0.00 | 0.00 | 57 | 1008.3 |
| 20260905233040 | 93 | 44 | 0.0 | 1.7 | 0.00 | 0.00 | 0.00 | 55 | 1008.5 |
| 20260905231522 | 94 | 46 | 0.0 | 1.7 | 0.00 | 0.00 | 0.00 | 50 | 1008.4 |
| 20260905230005 | 96 | 44 | 0.9 | 4.3 | 0.00 | 0.00 | 0.00 | 47 | 1008.2 |
| 20260905224547 | 97 | 58 | 2.6 | 3.5 | 0.00 | 0.00 | 0.00 | 45 | 1008.3 |
| 20260905223034 | 97 | 37 | 3.5 | 7.0 | 0.00 | 0.00 | 0.00 | 43 | 1008.4 |
| 20260905221515 | 98 | 34 | 0.9 | 4.3 | 0.00 | 0.00 | 0.00 | 43 | 1008.4 |
| 20260905214543 | 98 | 38 | 1.7 | 3.5 | 0.00 | 0.00 | 0.00 | 44 | 1008.4 |
| 20260905213023 | 98 | 23 | 1.7 | 5.2 | 0.00 | 0.00 | 0.00 | 41 | 1008.3 |
| 20260905211506 | 98 | 21 | 0.9 | 7.8 | 0.00 | 0.00 | 0.00 | 43 | 1008.4 |
| 20260905210050 | 97 | 54 | 1.7 | 7.8 | 0.00 | 0.00 | 0.00 | 44 | 1008.5 |
| 20260905204533 | 97 | 18 | 2.6 | 7.0 | 0.00 | 0.00 | 0.00 | 42 | 1008.8 |
| 20260905203017 | 97 | 70 | 7.0 | 11.3 | 0.00 | 0.00 | 0.00 | 43 | 1009.0 |
| 20260905201607 | 97 | 27 | 2.6 | 10.4 | 0.00 | 0.00 | 0.00 | 44 | 1009.2 |
| 20260905200046 | 99 | 328 | 0.9 | 7.0 | 0.00 | 0.00 | 0.00 | 42 | 1009.3 |
| 20260905194525 | 99 | 29 | 2.6 | 4.3 | 0.00 | 0.00 | 0.00 | 38 | 1009.5 |
| 20260905193013 | 98 | 40 | 0.9 | 6.1 | 0.00 | 0.00 | 0.00 | 40 | 1009.6 |
| 20260905191600 | 99 | 354 | 1.7 | 7.0 | 0.00 | 0.00 | 0.00 | 39 | 1009.8 |
| 20260905190035 | 98 | 285 | 0.9 | 5.2 | 0.00 | 0.00 | 0.00 | 39 | 1009.9 |
| 20260905184521 | 97 | 288 | 1.7 | 3.5 | 0.00 | 0.00 | 0.00 | 40 | 1010.2 |
| 20260905183102 | 95 | 10 | 1.7 | 5.2 | 0.00 | 0.00 | 0.00 | 45 | 1010.3 |
| 20260905181546 | 96 | 20 | 4.3 | 7.8 | 0.00 | 0.00 | 0.00 | 44 | 1010.5 |
| 20260905180027 | 98 | 56 | 2.6 | 4.3 | 0.00 | 0.00 | 0.00 | 46 | 1010.6 |
| 20260905174525 | 98 | 289 | 1.7 | 4.3 | 0.00 | 0.00 | 0.00 | 44 | 1010.7 |
| 20260905173108 | 97 | 257 | 0.9 | 4.3 | 0.00 | 0.00 | 0.00 | 47 | 1010.7 |
| 20260905171539 | 97 | 335 | 0.0 | 5.2 | 0.00 | 0.00 | 0.00 | 48 | 1011.0 |
| 20260905170016 | 96 | 314 | 0.0 | 3.5 | 0.00 | 0.00 | 0.00 | 49 | 1011.3 |
| 20260905164600 | 96 | 27 | 0.9 | 5.2 | 0.00 | 0.00 | 0.00 | 51 | 1011.4 |
| 20260905163051 | 95 | 311 | 0.9 | 6.1 | 0.00 | 0.00 | 0.00 | 53 | 1011.5 |
| 20260905161524 | 95 | 326 | 0.9 | 4.3 | 0.00 | 0.00 | 0.00 | 54 | 1011.5 |
| 20260905160008 | 93 | 267 | 0.9 | 2.6 | 0.00 | 0.00 | 0.00 | 54 | 1011.5 |